Time;durP1;ratioP1;P1;durP2;ratioP2;P2;SDS_P1;SDS_P2;PMS_P1;PMS_P2;Temp;Humidity;BMP_temperature;BMP_pressure;BME280_temperature;BME280_humidity;BME280_pressure;Samples;Min_cycle;Max_cycle;Signal;HPM_P1;HPM_P2
2022/05/01 00:02:18;;;;;;;40.85;26.58;;;;;;;10.26;87.10;96614.34;5089057;28;20049;-73
2022/05/01 00:04:44;;;;;;;45.35;28.25;;;;;;;10.26;87.00;96608.88;5089019;28;20047;-74
2022/05/01 00:07:12;;;;;;;44.17;28.75;;;;;;;10.13;86.68;96605.09;5089355;28;20043;-74
2022/05/01 00:09:39;;;;;;;48.47;29.67;;;;;;;9.91;87.46;96608.56;5089882;28;20506;-76
2022/05/01 00:12:07;;;;;;;53.83;31.92;;;;;;;9.94;88.17;96607.97;5088586;28;20105;-74
2022/05/01 00:14:34;;;;;;;48.70;27.23;;;;;;;10.00;87.92;96603.22;5088851;28;20047;-74
2022/05/01 00:17:01;;;;;;;47.28;26.38;;;;;;;10.02;88.27;96604.50;5089477;28;20040;-74
2022/05/01 00:19:28;;;;;;;44.65;26.20;;;;;;;10.07;88.20;96600.84;5088814;28;20040;-76
2022/05/01 00:21:55;;;;;;;45.55;25.95;;;;;;;10.10;87.83;96606.50;5089073;28;20051;-73
2022/05/01 00:24:23;;;;;;;45.03;26.73;;;;;;;10.12;87.93;96600.75;5090923;28;20709;-75
2022/05/01 00:26:50;;;;;;;46.00;28.02;;;;;;;10.07;87.78;96600.84;5093261;28;20598;-76
2022/05/01 00:29:16;;;;;;;44.78;27.60;;;;;;;10.04;88.01;96602.28;5092184;28;20048;-76
2022/05/01 00:31:43;;;;;;;47.97;30.85;;;;;;;10.06;88.06;96599.25;5092105;28;20040;-76
2022/05/01 00:36:54;;;;;;;45.95;29.75;;;;;;;10.08;88.05;96592.41;5092560;28;20054;-76
2022/05/01 00:39:20;;;;;;;49.17;32.85;;;;;;;10.10;87.79;96590.19;5092763;28;20051;-76
2022/05/01 00:41:48;;;;;;;52.22;33.17;;;;;;;10.12;88.34;96593.38;5092084;28;20062;-76
2022/05/01 00:44:16;;;;;;;49.88;32.53;;;;;;;10.13;88.31;96596.94;5091527;28;20044;-75
2022/05/01 00:46:44;;;;;;;50.15;31.52;;;;;;;10.11;88.46;96591.78;5092850;28;20169;-76
2022/05/01 00:49:13;;;;;;;52.35;33.08;;;;;;;10.11;88.46;96602.66;5091863;28;20040;-72
2022/05/01 00:51:42;;;;;;;52.72;32.85;;;;;;;10.14;88.55;96595.81;5093094;28;20051;-76
2022/05/01 00:54:09;;;;;;;53.85;33.58;;;;;;;10.18;88.51;96603.06;5091311;28;20040;-76
2022/05/01 00:56:40;;;;;;;52.53;33.78;;;;;;;10.14;88.55;96593.88;5092991;28;20066;-76
2022/05/01 00:59:10;;;;;;;53.47;32.20;;;;;;;10.14;89.27;96596.63;5091509;28;20086;-75
2022/05/01 01:01:40;;;;;;;48.90;32.22;;;;;;;10.10;89.20;96598.34;5092776;28;20075;-75
2022/05/01 01:04:07;;;;;;;51.05;31.35;;;;;;;10.12;89.53;96593.38;5091866;28;20040;-75
2022/05/01 01:06:34;;;;;;;52.08;31.88;;;;;;;10.07;89.03;96595.41;5092311;28;20051;-75
2022/05/01 01:09:01;;;;;;;49.80;32.42;;;;;;;10.11;89.32;96594.50;5092482;28;20562;-75
2022/05/01 01:11:27;;;;;;;55.55;34.15;;;;;;;10.06;89.31;96600.06;5091509;28;20517;-75
2022/05/01 01:13:54;;;;;;;55.45;33.80;;;;;;;10.08;89.20;96597.84;5091913;28;20040;-78
2022/05/01 01:16:23;;;;;;;56.63;34.05;;;;;;;10.04;89.23;96596.84;5091047;28;21181;-75
2022/05/01 01:18:49;;;;;;;56.33;33.63;;;;;;;10.11;89.16;96593.69;5092407;28;20047;-75
2022/05/01 01:21:18;;;;;;;54.47;33.97;;;;;;;10.17;89.04;96593.25;5091466;28;20051;-76
2022/05/01 01:23:46;;;;;;;62.45;36.90;;;;;;;10.24;89.05;96595.59;5092262;28;20067;-75
2022/05/01 01:26:14;;;;;;;56.53;34.25;;;;;;;10.29;88.96;96598.19;5091368;28;20044;-75
2022/05/01 01:28:42;;;;;;;51.45;33.25;;;;;;;10.31;88.69;96592.44;5091835;28;20040;-76
2022/05/01 01:34:06;;;;;;;54.33;32.88;;;;;;;10.12;87.88;96596.09;5065242;28;20043;-76
2022/05/01 01:36:38;;;;;;;48.42;31.52;;;;;;;10.12;88.34;96587.94;5091689;28;20130;-76
2022/05/01 01:39:04;;;;;;;51.15;33.03;;;;;;;10.16;88.32;96590.84;5090760;28;20040;-76
2022/05/01 01:41:32;;;;;;;51.33;32.35;;;;;;;10.16;88.19;96588.94;5091963;28;20051;-75
2022/05/01 01:44:00;;;;;;;46.80;30.15;;;;;;;10.10;87.89;96590.19;5090922;28;20418;-75
2022/05/01 01:46:27;;;;;;;50.42;32.35;;;;;;;10.06;87.89;96593.81;5091254;28;20036;-75
2022/05/01 01:48:54;;;;;;;50.97;33.50;;;;;;;10.09;87.93;96587.78;5091497;28;20513;-75
2022/05/01 01:51:20;;;;;;;50.15;31.77;;;;;;;10.12;88.14;96590.66;5090850;28;20040;-74
2022/05/01 01:53:48;;;;;;;53.60;33.80;;;;;;;10.14;87.93;96590.38;5091721;28;20415;-74
2022/05/01 01:56:15;;;;;;;50.65;32.40;;;;;;;10.11;87.84;96589.06;5090426;28;20642;-75
2022/05/01 01:58:42;;;;;;;50.70;32.65;;;;;;;10.04;87.78;96588.69;5091895;28;20098;-75
2022/05/01 02:01:11;;;;;;;53.25;32.88;;;;;;;10.03;87.84;96591.72;5090334;28;20114;-75
2022/05/01 02:03:38;;;;;;;54.67;34.17;;;;;;;10.05;87.91;96586.78;5091740;28;20064;-75
2022/05/01 02:06:05;;;;;;;54.30;34.28;;;;;;;10.05;88.23;96582.13;5090337;28;20044;-75
2022/05/01 02:08:34;;;;;;;53.38;34.63;;;;;;;10.01;88.13;96583.84;5091484;28;20036;-75
2022/05/01 02:11:02;;;;;;;55.80;35.75;;;;;;;10.00;88.10;96587.69;5091022;28;20500;-75
2022/05/01 02:13:28;;;;;;;58.50;36.78;;;;;;;9.94;88.32;96587.00;5090059;28;20044;-75
2022/05/01 02:15:55;;;;;;;58.42;36.75;;;;;;;9.93;88.90;96587.31;5091299;28;20047;-74
2022/05/01 02:18:21;;;;;;;58.72;36.90;;;;;;;9.85;89.26;96582.59;5090018;28;20063;-75
2022/05/01 02:23:33;;;;;;;64.68;37.72;;;;;;;9.80;89.64;96590.88;5090423;28;20051;-75
2022/05/01 02:26:00;;;;;;;58.33;35.70;;;;;;;9.80;89.85;96583.53;5091084;28;20046;-75
2022/05/01 02:28:28;;;;;;;63.72;37.10;;;;;;;9.81;90.10;96584.31;5090414;28;20044;-75
2022/05/01 02:30:55;;;;;;;58.65;36.30;;;;;;;9.87;90.24;96574.97;5090435;28;20044;-75
2022/05/01 02:33:22;;;;;;;62.67;37.10;;;;;;;9.74;90.00;96575.81;5090253;28;20078;-75
2022/05/01 02:35:48;;;;;;;65.72;37.47;;;;;;;9.59;90.65;96572.31;5090291;28;20048;-74
2022/05/01 02:38:15;;;;;;;73.97;41.78;;;;;;;9.66;91.18;96571.91;5090428;28;20526;-75
2022/05/01 02:40:42;;;;;;;65.35;38.17;;;;;;;9.77;90.83;96567.03;5089997;28;20051;-75
2022/05/01 02:43:09;;;;;;;74.78;40.15;;;;;;;9.87;90.83;96564.09;5090060;28;20047;-75
2022/05/01 02:45:38;;;;;;;64.07;37.17;;;;;;;9.94;90.40;96572.59;5089929;28;20043;-74
2022/05/01 02:48:05;;;;;;;61.53;36.10;;;;;;;9.99;90.44;96561.59;5090214;28;20044;-77
2022/05/01 02:50:31;;;;;;;60.58;36.50;;;;;;;9.89;90.06;96568.09;5090122;28;20043;-75
2022/05/01 02:52:59;;;;;;;64.93;38.70;;;;;;;9.92;90.00;96563.97;5090275;28;20056;-75
2022/05/01 02:55:25;;;;;;;60.88;37.08;;;;;;;9.85;89.52;96566.28;5089709;28;20040;-75
2022/05/01 02:57:52;;;;;;;64.75;37.60;;;;;;;9.87;89.78;96561.38;5089975;28;20429;-75
2022/05/01 03:00:18;;;;;;;59.00;36.40;;;;;;;9.91;89.69;96556.91;5090159;28;20405;-75
2022/05/01 03:02:48;;;;;;;58.75;35.95;;;;;;;9.92;89.67;96561.25;5089799;28;20055;-75
2022/05/01 03:05:15;;;;;;;55.10;34.92;;;;;;;9.90;89.31;96558.81;5090140;28;20523;-75
2022/05/01 03:07:42;;;;;;;55.95;34.42;;;;;;;9.93;89.16;96560.94;5089778;28;20387;-74
2022/05/01 03:10:10;;;;;;;56.00;34.58;;;;;;;9.91;89.07;96559.63;5089914;28;20044;-75
2022/05/01 03:12:37;;;;;;;52.65;33.40;;;;;;;9.95;89.15;96557.88;5088863;28;20044;-74
2022/05/01 03:15:06;;;;;;;53.38;32.50;;;;;;;9.99;88.95;96563.53;5089541;28;20044;-75
2022/05/01 03:22:59;;;;;;;59.45;35.80;;;;;;;9.94;89.15;96548.94;5090454;28;20406;-75
2022/05/01 03:25:26;;;;;;;56.28;34.83;;;;;;;9.94;89.29;96553.56;5088854;28;20401;-75
2022/05/01 03:27:53;;;;;;;55.72;33.53;;;;;;;10.02;89.52;96554.72;5090250;28;20043;-75
2022/05/01 03:30:20;;;;;;;57.17;33.05;;;;;;;10.06;89.44;96556.53;5088724;28;20130;-76
2022/05/01 03:32:46;;;;;;;54.35;33.38;;;;;;;10.13;89.01;96550.66;5090085;28;20041;-75
2022/05/01 03:35:15;;;;;;;53.80;34.15;;;;;;;10.13;89.03;96550.66;5089042;28;20067;-75
2022/05/01 03:37:42;;;;;;;53.03;33.55;;;;;;;10.15;88.75;96557.41;5089559;28;20603;-75
2022/05/01 03:40:10;;;;;;;52.50;33.42;;;;;;;10.21;88.92;96552.63;5089132;28;20098;-75
2022/05/01 03:42:37;;;;;;;51.53;32.97;;;;;;;10.23;88.68;96555.03;5087055;28;20407;-75
2022/05/01 03:45:04;;;;;;;51.80;31.83;;;;;;;10.28;88.47;96552.22;5089488;28;20048;-76
2022/05/01 03:47:32;;;;;;;48.95;31.30;;;;;;;10.25;88.00;96563.75;5088654;28;20492;-75
2022/05/01 03:49:59;;;;;;;51.10;31.73;;;;;;;10.26;87.91;96555.25;5090230;28;20048;-75
2022/05/01 03:52:27;;;;;;;47.85;30.60;;;;;;;10.28;87.79;96552.22;5088491;28;20040;-75
2022/05/01 03:54:53;;;;;;;49.33;31.13;;;;;;;10.28;87.81;96552.22;5089651;28;20491;-75
2022/05/01 03:57:20;;;;;;;49.95;31.42;;;;;;;10.30;87.20;96552.72;5088769;28;20051;-75
2022/05/01 03:59:47;;;;;;;47.83;31.88;;;;;;;10.30;87.28;96561.69;5092689;28;20044;-75
2022/05/01 04:02:15;;;;;;;48.78;31.40;;;;;;;10.31;87.23;96554.31;5092758;28;20085;-75
2022/05/01 04:04:42;;;;;;;53.78;31.65;;;;;;;10.33;87.07;96561.06;5093534;28;20043;-75
2022/05/01 04:07:08;;;;;;;47.33;30.65;;;;;;;10.33;86.77;96562.97;5093250;28;20052;-75
2022/05/01 04:09:37;;;;;;;49.38;31.05;;;;;;;10.30;86.58;96561.69;5092937;28;20040;-75
2022/05/01 04:12:04;;;;;;;46.67;30.50;;;;;;;10.23;86.36;96558.56;5093077;28;20132;-75
2022/05/01 04:14:32;;;;;;;49.05;30.83;;;;;;;10.19;86.47;96555.66;5092663;28;20483;-75
2022/05/01 04:16:58;;;;;;;51.13;32.00;;;;;;;10.17;86.81;96557.06;5093471;28;20805;-75
2022/05/01 04:19:25;;;;;;;46.70;30.67;;;;;;;10.18;86.47;96564.16;5092306;28;20044;-75
2022/05/01 04:21:52;;;;;;;49.70;31.10;;;;;;;10.20;86.94;96557.28;5093338;28;20047;-75
2022/05/01 04:24:18;;;;;;;48.80;31.52;;;;;;;10.17;86.77;96557.88;5092469;28;20052;-75
2022/05/01 04:26:46;;;;;;;47.60;31.10;;;;;;;10.08;86.97;96565.19;5092841;28;20051;-75
2022/05/01 04:31:57;;;;;;;49.72;32.08;;;;;;;10.10;87.12;96562.97;5092426;28;20506;-75
2022/05/01 04:34:24;;;;;;;46.90;31.05;;;;;;;10.14;87.11;96566.69;5092881;28;20517;-75
2022/05/01 04:36:50;;;;;;;53.45;32.72;;;;;;;10.03;87.19;96565.31;5092394;28;20036;-75
2022/05/01 04:39:17;;;;;;;50.15;31.88;;;;;;;10.06;87.35;96559.25;5092758;28;20490;-75
2022/05/01 04:41:44;;;;;;;50.42;31.92;;;;;;;10.07;87.42;96569.00;5092267;28;20094;-75
2022/05/01 04:44:12;;;;;;;52.50;31.92;;;;;;;10.09;87.05;96569.53;5092531;28;20106;-75
2022/05/01 04:46:38;;;;;;;48.30;30.85;;;;;;;10.04;87.00;96569.66;5092796;28;20047;-75
2022/05/01 04:49:05;;;;;;;47.70;31.17;;;;;;;10.03;87.46;96576.22;5092065;28;20044;-75
2022/05/01 04:51:31;;;;;;;49.10;32.17;;;;;;;10.05;87.61;96570.44;5092922;28;20074;-75
2022/05/01 04:53:58;;;;;;;49.15;31.42;;;;;;;10.05;87.28;96571.25;5092105;28;20048;-75
2022/05/01 04:59:10;;;;;;;50.00;30.83;;;;;;;10.07;87.28;96576.38;5091862;28;20051;-75
2022/05/01 05:01:38;;;;;;;47.10;30.58;;;;;;;10.08;87.63;96575.28;5092806;28;20058;-75
2022/05/01 05:04:05;;;;;;;48.85;31.33;;;;;;;10.11;87.40;96580.88;5091599;28;20075;-75
2022/05/01 05:06:31;;;;;;;50.88;30.80;;;;;;;10.14;87.12;96579.50;5092120;28;20538;-75
2022/05/01 05:11:42;;;;;;;48.25;30.67;;;;;;;10.01;87.76;96572.16;5090245;28;20078;-75
2022/05/01 05:14:08;;;;;;;49.80;30.80;;;;;;;9.86;88.18;96585.00;5092295;28;20044;-75
2022/05/01 05:16:35;;;;;;;50.42;32.00;;;;;;;9.82;88.29;96577.81;5091474;28;20048;-75
2022/05/01 05:19:03;;;;;;;49.08;31.05;;;;;;;9.86;88.42;96579.56;5092059;28;20486;-75
2022/05/01 05:21:30;;;;;;;49.47;31.70;;;;;;;9.76;88.70;96579.00;5091622;28;20040;-75
2022/05/01 05:23:56;;;;;;;47.85;31.00;;;;;;;9.70;89.32;96578.31;5092182;28;20044;-75
2022/05/01 05:26:23;;;;;;;52.75;31.52;;;;;;;9.79;89.36;96584.66;5091324;28;20052;-75
2022/05/01 05:28:49;;;;;;;51.28;31.90;;;;;;;9.86;89.29;96590.44;5091435;28;20051;-75
2022/05/01 05:31:16;;;;;;;53.15;33.55;;;;;;;9.88;89.72;96588.25;5091308;28;20083;-75
2022/05/01 05:33:43;;;;;;;59.65;33.95;;;;;;;9.96;89.43;96588.63;5091388;28;20039;-75
2022/05/01 05:36:11;;;;;;;55.28;32.35;;;;;;;10.06;89.41;96589.19;5091403;28;20048;-75
2022/05/01 05:38:38;;;;;;;52.08;32.75;;;;;;;10.17;89.47;96592.47;5090982;28;20043;-75
2022/05/01 05:41:05;;;;;;;51.20;32.03;;;;;;;10.22;89.09;96586.09;5091912;28;20066;-75
2022/05/01 05:43:32;;;;;;;48.22;30.73;;;;;;;10.28;88.86;96590.31;5090952;28;20035;-75
2022/05/01 05:45:58;;;;;;;48.83;31.27;;;;;;;10.23;88.50;96598.56;5091642;28;20040;-75
2022/05/01 05:48:25;;;;;;;48.50;31.63;;;;;;;10.28;88.29;96598.47;5090471;28;20044;-75
2022/05/01 05:50:51;;;;;;;49.88;31.67;;;;;;;10.25;87.82;96599.13;5091547;28;20047;-75
2022/05/01 05:53:21;;;;;;;50.10;31.63;;;;;;;10.29;87.80;96598.19;5090606;28;20044;-75
2022/05/01 05:55:48;;;;;;;48.72;30.77;;;;;;;10.30;88.02;96604.44;5090796;28;20040;-75
2022/05/01 05:58:15;;;;;;;49.42;32.13;;;;;;;10.22;88.02;96597.78;5091279;28;20036;-75
2022/05/01 06:00:41;;;;;;;50.35;31.02;;;;;;;10.17;88.31;96601.41;5090719;28;20071;-75
2022/05/01 06:03:08;;;;;;;55.85;32.75;;;;;;;10.17;88.34;96601.41;5090911;28;20383;-75
2022/05/01 06:05:34;;;;;;;52.70;32.00;;;;;;;10.23;88.68;96604.03;5090988;28;20044;-75
2022/05/01 06:08:01;;;;;;;56.58;33.72;;;;;;;10.24;88.80;96600.25;5091541;28;20510;-77
2022/05/01 06:10:29;;;;;;;58.35;34.88;;;;;;;10.32;88.69;96602.19;5090523;28;20392;-74
2022/05/01 06:12:55;;;;;;;54.33;33.13;;;;;;;10.37;88.51;96604.78;5090729;28;20044;-74
2022/05/01 06:15:23;;;;;;;53.30;33.40;;;;;;;10.35;88.22;96607.03;5090243;28;20470;-74
2022/05/01 06:17:51;;;;;;;51.08;32.90;;;;;;;10.29;88.21;96608.28;5090878;28;20051;-75
2022/05/01 06:20:17;;;;;;;56.15;33.75;;;;;;;10.28;88.45;96606.66;5090666;28;20044;-74
2022/05/01 06:22:44;;;;;;;57.13;33.55;;;;;;;10.31;88.34;96611.47;5090088;28;20043;-74
2022/05/01 06:25:11;;;;;;;60.28;35.33;;;;;;;10.24;88.59;96616.56;5090870;28;20055;-74
2022/05/01 06:27:38;;;;;;;67.60;38.10;;;;;;;10.31;89.08;96617.72;5090313;28;20044;-75
2022/05/01 06:30:07;;;;;;;56.80;35.15;;;;;;;10.39;88.85;96617.00;5090937;28;20040;-75
2022/05/01 06:32:34;;;;;;;53.22;33.05;;;;;;;10.47;88.32;96615.44;5090018;28;20048;-75
2022/05/01 06:35:01;;;;;;;56.35;34.38;;;;;;;10.54;88.01;96621.22;5090875;28;20044;-74
2022/05/01 06:37:27;;;;;;;56.65;34.83;;;;;;;10.51;86.87;96619.16;5089909;28;20055;-74
2022/05/01 06:39:54;;;;;;;54.33;33.75;;;;;;;10.60;87.25;96620.00;5090440;28;20036;-75
2022/05/01 06:42:21;;;;;;;48.05;31.35;;;;;;;10.57;86.63;96626.06;5089913;28;20521;-75
2022/05/01 06:44:49;;;;;;;52.83;33.25;;;;;;;10.54;86.83;96626.69;5090171;28;20069;-74
2022/05/01 06:47:15;;;;;;;52.88;33.33;;;;;;;10.53;86.42;96616.91;5089999;28;20047;-74
2022/05/01 06:49:42;;;;;;;56.13;33.63;;;;;;;10.47;86.45;96625.53;5089814;28;20044;-75
2022/05/01 06:52:08;;;;;;;52.90;32.92;;;;;;;10.48;86.49;96622.47;5090061;28;20458;-74
2022/05/01 06:54:35;;;;;;;57.00;35.05;;;;;;;10.50;86.54;96625.72;5089838;28;20048;-75
2022/05/01 06:57:01;;;;;;;56.63;33.97;;;;;;;10.42;86.98;96624.53;5090083;28;20043;-74
2022/05/01 06:59:28;;;;;;;62.03;34.90;;;;;;;10.48;87.43;96633.38;5089612;28;20069;-74
2022/05/01 07:01:56;;;;;;;57.83;34.13;;;;;;;10.57;87.16;96626.06;5090357;28;20044;-74
2022/05/01 07:04:22;;;;;;;50.08;32.28;;;;;;;10.61;86.46;96621.63;5089501;28;20048;-74
2022/05/01 07:06:49;;;;;;;52.25;33.03;;;;;;;10.63;86.45;96624.03;5090032;28;20043;-73
2022/05/01 07:09:15;;;;;;;49.45;32.58;;;;;;;10.64;86.27;96625.63;5089629;28;20040;-73
2022/05/01 07:11:42;;;;;;;49.55;32.70;;;;;;;10.66;85.88;96624.22;5089028;28;20044;-74
2022/05/01 07:14:08;;;;;;;47.75;32.28;;;;;;;10.65;86.04;96621.81;5089980;28;20044;-74
2022/05/01 07:16:35;;;;;;;55.50;33.63;;;;;;;10.57;86.45;96623.34;5089148;28;20051;-74
2022/05/01 07:19:03;;;;;;;55.90;34.40;;;;;;;10.52;86.88;96623.47;5090053;28;20448;-75
2022/05/01 07:21:29;;;;;;;57.35;34.95;;;;;;;10.56;86.84;96627.19;5089455;28;20055;-74
2022/05/01 07:23:56;;;;;;;54.72;33.53;;;;;;;10.50;87.00;96631.16;5089938;28;20036;-74
2022/05/01 07:26:22;;;;;;;55.33;34.92;;;;;;;10.40;87.48;96623.25;5088848;28;20063;-73
2022/05/01 07:28:49;;;;;;;56.75;34.95;;;;;;;10.36;87.26;96624.97;5089806;28;20123;-74
2022/05/01 07:31:16;;;;;;;55.17;34.00;;;;;;;10.32;87.63;96627.50;5089379;28;20036;-74
2022/05/01 07:33:42;;;;;;;59.42;36.13;;;;;;;10.29;88.45;96627.34;5088742;28;20036;-74
2022/05/01 07:36:11;;;;;;;65.68;37.63;;;;;;;10.31;88.89;96633.25;5089365;28;20047;-74
2022/05/01 07:38:37;;;;;;;58.38;35.75;;;;;;;10.32;88.84;96623.97;5088928;28;20093;-75
2022/05/01 07:41:04;;;;;;;56.63;34.65;;;;;;;10.32;88.19;96618.53;5089647;28;20043;-75
2022/05/01 07:43:30;;;;;;;56.78;34.55;;;;;;;10.24;87.87;96625.53;5088833;28;20048;-74
2022/05/01 07:45:56;;;;;;;65.45;37.75;;;;;;;10.22;88.59;96624.19;5089720;28;20487;-74
2022/05/01 07:48:23;;;;;;;66.75;37.80;;;;;;;10.23;89.12;96623.06;5088631;28;20047;-74
2022/05/01 07:50:49;;;;;;;64.40;38.30;;;;;;;10.28;89.55;96628.41;5089641;28;20044;-74
2022/05/01 07:53:17;;;;;;;67.18;37.95;;;;;;;10.25;89.65;96629.84;5088821;28;20526;-74
2022/05/01 07:55:44;;;;;;;60.92;36.05;;;;;;;10.28;89.82;96631.16;5089104;28;20044;-74
2022/05/01 07:58:10;;;;;;;63.90;37.95;;;;;;;10.34;89.63;96630.72;5089168;28;20044;-74
2022/05/01 08:00:37;;;;;;;60.63;36.22;;;;;;;10.38;88.87;96628.97;5088607;28;20502;-74
2022/05/01 08:05:48;;;;;;;60.15;36.13;;;;;;;10.63;87.95;96629.47;5089698;28;20080;-74
2022/05/01 08:08:14;;;;;;;58.10;34.50;;;;;;;10.56;86.73;96629.91;5089203;28;20036;-76
2022/05/01 08:10:42;;;;;;;56.70;35.72;;;;;;;10.54;86.75;96637.56;5089026;28;20047;-75
2022/05/01 08:13:08;;;;;;;68.65;38.55;;;;;;;10.68;86.72;96634.78;5088165;28;20051;-74
2022/05/01 08:15:35;;;;;;;65.65;38.50;;;;;;;10.80;86.87;96623.31;5089250;28;20048;-74
2022/05/01 08:23:27;;;;;;;56.60;35.58;;;;;;;10.77;86.56;96623.94;5087653;28;20574;-75
2022/05/01 08:25:54;;;;;;;53.17;33.67;;;;;;;10.89;86.55;96626.88;5089595;28;20044;-75
2022/05/01 08:28:21;;;;;;;52.40;32.80;;;;;;;10.93;86.21;96625.16;5088277;28;20051;-75
2022/05/01 08:30:48;;;;;;;51.20;31.73;;;;;;;10.96;85.19;96627.22;5089108;28;20043;-75
2022/05/01 08:33:14;;;;;;;82.65;53.90;;;;;;;10.98;85.89;96620.38;5088244;28;20059;-75
2022/05/01 08:35:40;;;;;;;55.40;34.03;;;;;;;11.02;85.34;96626.00;5088634;28;20048;-75
2022/05/01 08:38:08;;;;;;;52.38;33.30;;;;;;;11.11;85.31;96623.28;5088525;28;20036;-75
2022/05/01 08:40:34;;;;;;;55.72;33.55;;;;;;;11.09;84.59;96625.53;5088619;28;20433;-74
2022/05/01 08:43:02;;;;;;;52.60;32.88;;;;;;;11.11;85.06;96623.28;5089215;28;20044;-74
2022/05/01 08:45:42;;;;;;;54.97;34.40;;;;;;;11.18;84.47;96627.19;5090024;28;20062;-75
2022/05/01 08:48:13;;;;;;;53.45;34.50;;;;;;;11.18;84.09;96629.91;5092606;28;20143;-75
2022/05/01 08:50:41;;;;;;;46.08;31.73;;;;;;;11.20;83.92;96627.66;5092014;28;20043;-74
2022/05/01 08:53:09;;;;;;;47.10;30.52;;;;;;;11.23;83.75;96626.25;5091794;28;20040;-75
2022/05/01 08:55:36;;;;;;;46.60;30.05;;;;;;;11.23;82.96;96623.53;5091949;28;20048;-76
2022/05/01 08:58:05;;;;;;;46.58;31.80;;;;;;;11.32;82.83;96618.88;5091520;28;20434;-77
2022/05/01 09:00:31;;;;;;;47.05;30.17;;;;;;;11.35;82.67;96622.91;5092243;28;20048;-80
2022/05/01 09:02:58;;;;;;;44.67;29.58;;;;;;;11.31;82.42;96622.72;5091390;28;20036;-78
2022/05/01 09:05:24;;;;;;;44.83;29.42;;;;;;;11.40;82.14;96617.31;5092161;28;20048;-77
2022/05/01 09:07:51;;;;;;;45.65;29.48;;;;;;;11.45;82.72;96622.63;5091251;28;20043;-75
2022/05/01 09:10:19;;;;;;;45.50;30.70;;;;;;;11.49;82.79;96618.16;5092122;28;20499;-75
2022/05/01 09:12:52;;;;;;;43.65;29.65;;;;;;;11.46;82.04;96618.75;5090990;28;20040;-76
2022/05/01 09:15:32;;;;;;;42.33;29.15;;;;;;;11.47;81.43;96612.97;5090795;28;20044;-74
2022/05/01 09:18:03;;;;;;;39.03;26.88;;;;;;;11.47;80.98;96615.72;5092122;28;20449;-75
2022/05/01 09:20:29;;;;;;;54.28;34.50;;;;;;;11.50;80.77;96601.47;5091372;28;20040;-75
2022/05/01 09:22:58;;;;;;;44.42;29.88;;;;;;;11.40;81.13;96617.31;5092091;28;20040;-75
2022/05/01 09:25:27;;;;;;;45.28;29.50;;;;;;;11.19;81.69;96615.16;5090847;28;20589;-75
2022/05/01 09:27:57;;;;;;;48.28;30.58;;;;;;;11.05;82.07;96614.44;5092429;28;20062;-75
2022/05/01 09:30:32;;;;;;;45.63;29.98;;;;;;;11.00;82.65;96611.06;5090457;28;20051;-75
2022/05/01 09:32:59;;;;;;;49.65;32.67;;;;;;;10.91;83.43;96613.75;5091942;28;20054;-75
2022/05/01 09:35:31;;;;;;;43.88;29.17;;;;;;;10.80;83.98;96620.59;5090688;28;20047;-75
2022/05/01 09:38:16;;;;;;;49.30;30.95;;;;;;;10.77;83.84;96618.50;5091378;28;20048;-74
2022/05/01 09:40:44;;;;;;;46.45;29.98;;;;;;;10.71;84.10;96615.09;5091827;28;20051;-74
2022/05/01 09:43:37;;;;;;;46.40;30.42;;;;;;;10.72;84.56;96622.16;5090439;28;20040;-74
2022/05/01 09:46:17;;;;;;;46.70;31.63;;;;;;;10.74;84.83;96625.34;5090773;28;20066;-74
2022/05/01 09:48:56;;;;;;;50.65;32.80;;;;;;;10.74;85.35;96625.34;5090114;28;20051;-74
2022/05/01 09:51:22;;;;;;;52.75;34.15;;;;;;;10.83;85.23;96625.41;5088874;28;20044;-74
2022/05/01 09:53:49;;;;;;;50.10;33.15;;;;;;;10.78;85.30;96631.78;5088052;28;20048;-74
2022/05/01 09:56:15;;;;;;;50.78;32.10;;;;;;;10.77;85.23;96623.94;5088557;28;20052;-74
2022/05/01 09:58:43;;;;;;;54.97;32.67;;;;;;;10.82;84.38;96626.53;5089327;28;20048;-74
2022/05/01 10:01:11;;;;;;;45.28;30.35;;;;;;;10.84;84.06;96618.84;5086367;28;20039;-74
2022/05/01 10:03:42;;;;;;;47.92;31.48;;;;;;;10.86;83.43;96616.63;5090016;28;20044;-75
2022/05/01 10:06:11;;;;;;;50.28;32.05;;;;;;;10.90;83.07;96623.84;5083740;28;20157;-74
2022/05/01 10:08:39;;;;;;;48.70;31.30;;;;;;;10.87;84.19;96618.22;5070874;28;20045;-74
2022/05/01 10:11:07;;;;;;;47.92;32.58;;;;;;;10.96;84.44;96616.31;5072020;28;20399;-74
2022/05/01 10:13:35;;;;;;;53.30;33.92;;;;;;;11.08;84.88;96613.03;5090176;28;20113;-75
2022/05/01 10:16:03;;;;;;;47.00;31.25;;;;;;;11.08;84.67;96605.66;5090556;28;20044;-75
2022/05/01 10:18:30;;;;;;;48.25;31.95;;;;;;;11.12;82.93;96605.81;5072797;28;20042;-77
2022/05/01 10:20:58;;;;;;;49.58;32.72;;;;;;;11.16;83.28;96607.59;5070892;28;20047;-75
2022/05/01 10:23:26;;;;;;;41.38;29.90;;;;;;;11.12;82.06;96595.75;5069457;28;20040;-75
2022/05/01 10:25:55;;;;;;;44.35;29.15;;;;;;;11.10;81.15;96600.69;5070554;28;20056;-75
2022/05/01 10:28:46;;;;;;;42.90;27.92;;;;;;;11.17;80.63;96601.06;5069194;28;20519;-76
2022/05/01 10:34:22;;;;;;;41.05;29.33;;;;;;;11.28;81.36;96595.31;5069822;28;20137;-76
2022/05/01 10:37:00;;;;;;;45.47;30.88;;;;;;;11.26;81.55;96598.34;5069131;28;20047;-75
2022/05/01 10:39:33;;;;;;;47.13;32.08;;;;;;;11.21;82.44;96591.09;5069266;28;20037;-75
2022/05/01 10:42:00;;;;;;;48.47;31.92;;;;;;;11.09;83.14;96593.63;5074900;28;20470;-75
2022/05/01 10:44:30;;;;;;;46.17;30.77;;;;;;;11.08;83.59;96592.03;5089536;28;20040;-75
2022/05/01 10:47:04;;;;;;;47.88;33.13;;;;;;;11.20;83.34;96589.50;5090305;28;20097;-76
2022/05/01 10:49:36;;;;;;;49.08;32.25;;;;;;;11.33;82.79;96586.97;5089681;28;20064;-75
2022/05/01 10:52:19;;;;;;;48.60;32.40;;;;;;;11.37;82.77;96587.94;5090021;28;20044;-75
2022/05/01 10:54:54;;;;;;;50.13;34.13;;;;;;;11.42;83.07;96585.88;5090407;28;20044;-75
2022/05/01 10:57:23;;;;;;;48.10;31.50;;;;;;;11.61;83.05;96593.78;5090044;28;20119;-75
2022/05/01 11:00:05;;;;;;;43.15;30.20;;;;;;;11.62;80.58;96589.91;5089930;28;20040;-75
2022/05/01 11:02:36;;;;;;;43.47;30.40;;;;;;;11.58;81.59;96588.16;5090040;28;20521;-75
2022/05/01 11:05:03;;;;;;;40.42;27.63;;;;;;;11.58;79.81;96580.75;5090140;28;20083;-75
2022/05/01 11:07:34;;;;;;;33.80;25.63;;;;;;;11.67;79.65;96583.50;5088989;28;20040;-75
2022/05/01 11:10:01;;;;;;;32.83;23.70;;;;;;;11.70;78.74;96580.97;5090293;28;20044;-75
2022/05/01 11:12:30;;;;;;;34.15;23.35;;;;;;;11.76;77.18;96576.16;5088758;28;20047;-75
2022/05/01 11:14:59;;;;;;;33.45;23.55;;;;;;;11.75;76.71;96572.63;5090448;28;20387;-75
2022/05/01 11:17:52;;;;;;;32.42;23.50;;;;;;;11.83;75.15;96572.97;5088840;28;20051;-75
2022/05/01 11:20:33;;;;;;;32.95;24.05;;;;;;;11.94;75.81;96574.25;5089369;28;20055;-75
2022/05/01 11:23:31;;;;;;;34.97;25.30;;;;;;;12.13;76.55;96577.47;5090171;28;20040;-75
2022/05/01 11:26:13;;;;;;;37.50;25.10;;;;;;;12.17;75.65;96578.44;5088960;28;20494;-75
2022/05/01 11:28:47;;;;;;;31.60;22.98;;;;;;;12.37;75.53;96576.13;5089605;28;20039;-76
2022/05/01 11:31:46;;;;;;;30.77;22.10;;;;;;;12.55;73.62;96575.00;5089194;28;20044;-76
2022/05/01 11:34:32;;;;;;;29.20;21.73;;;;;;;12.63;73.14;96567.88;5088381;28;20477;-75
2022/05/01 11:37:02;;;;;;;30.15;21.27;;;;;;;12.68;72.39;96557.56;5089958;28;20525;-75
2022/05/01 11:40:01;;;;;;;27.42;20.65;;;;;;;12.78;70.55;96565.41;5089526;28;20059;-75
2022/05/01 11:42:36;;;;;;;26.65;20.33;;;;;;;12.98;70.72;96563.09;5088928;28;20044;-75
2022/05/01 11:45:05;;;;;;;26.52;20.95;;;;;;;13.03;71.33;96561.00;5089455;28;20047;-76
2022/05/01 11:47:34;;;;;;;27.13;20.20;;;;;;;13.18;69.86;96558.84;5089131;28;20044;-76
2022/05/01 11:50:01;;;;;;;29.33;23.48;;;;;;;13.26;71.51;96558.03;5089730;28;20487;-75
2022/05/01 11:52:28;;;;;;;26.63;20.23;;;;;;;13.48;70.13;96554.19;5088493;28;20047;-75
2022/05/01 11:54:56;;;;;;;28.15;19.20;;;;;;;13.52;66.54;96552.38;5089876;28;20047;-75
2022/05/01 12:02:58;;;;;;;23.40;18.27;;;;;;;13.64;66.37;96557.94;5089644;28;20089;-76
2022/05/01 12:05:25;;;;;;;25.65;19.33;;;;;;;13.63;65.98;96556.34;5088234;28;20048;-75